Time;durP1;ratioP1;P1;durP2;ratioP2;P2;SDS_P1;SDS_P2;PMS_P1;PMS_P2;Temp;Humidity;BMP_temperature;BMP_pressure;BME280_temperature;BME280_humidity;BME280_pressure;Samples;Min_cycle;Max_cycle;Signal;HPM_P1;HPM_P2
2024/01/10 00:01:03;;;;;;;9.50;4.13;;;;;;;;;;4914563;29;20300;-67
2024/01/10 00:03:30;;;;;;;3.20;2.03;;;;;;;;;;4914963;29;20212;-67
2024/01/10 00:05:57;;;;;;;10.73;4.43;;;;;;;;;;4914637;29;20204;-67
2024/01/10 00:08:24;;;;;;;17.10;6.67;;;;;;;;;;4914792;29;20216;-66
2024/01/10 00:10:51;;;;;;;13.07;6.00;;;;;;;;;;4915202;29;20315;-66
2024/01/10 00:13:18;;;;;;;5.53;3.63;;;;;;;;;;4915179;29;20220;-66
2024/01/10 00:15:45;;;;;;;9.60;4.13;;;;;;;;;;4915447;29;20608;-66
2024/01/10 00:18:14;;;;;;;13.50;4.93;;;;;;;;;;4914853;29;20624;-66
2024/01/10 00:20:41;;;;;;;14.67;4.97;;;;;;;;;;4914788;29;20759;-66
2024/01/10 00:23:08;;;;;;;15.73;6.17;;;;;;;;;;4918931;29;20258;-66
2024/01/10 00:25:35;;;;;;;13.50;4.80;;;;;;;;;;4915151;29;20226;-66
2024/01/10 00:28:02;;;;;;;17.80;5.07;;;;;;;;;;4914979;29;20667;-66
2024/01/10 00:30:29;;;;;;;8.37;4.20;;;;;;;;;;4915228;29;20219;-66
2024/01/10 00:32:56;;;;;;;10.17;4.57;;;;;;;;;;4914517;29;20210;-66
2024/01/10 00:35:25;;;;;;;7.50;3.37;;;;;;;;;;4914604;29;20216;-66
2024/01/10 00:37:52;;;;;;;11.97;4.63;;;;;;;;;;4914511;29;20246;-66
2024/01/10 00:40:19;;;;;;;6.53;2.80;;;;;;;;;;4914439;29;20219;-66
2024/01/10 00:42:46;;;;;;;8.70;4.33;;;;;;;;;;4914188;29;20261;-66
2024/01/10 00:45:13;;;;;;;14.17;6.13;;;;;;;;;;4914792;29;20219;-66
2024/01/10 00:47:40;;;;;;;10.73;4.47;;;;;;;;;;4913469;29;20219;-66
2024/01/10 00:50:07;;;;;;;15.60;5.03;;;;;;;;;;4917369;29;20210;-66
2024/01/10 00:52:36;;;;;;;16.93;6.83;;;;;;;;;;4933089;29;20218;-66
2024/01/10 00:55:03;;;;;;;7.60;3.30;;;;;;;;;;4916511;29;20211;-66
2024/01/10 00:57:30;;;;;;;7.47;4.33;;;;;;;;;;4914470;29;20223;-66
2024/01/10 00:59:57;;;;;;;2.87;2.57;;;;;;;;;;4914487;29;20219;-66
2024/01/10 01:02:24;;;;;;;14.33;6.50;;;;;;;;;;4914589;29;20241;-66
2024/01/10 01:04:51;;;;;;;10.73;4.27;;;;;;;;;;4914085;29;20222;-66
2024/01/10 01:07:18;;;;;;;14.90;6.90;;;;;;;;;;4914431;29;20683;-66
2024/01/10 01:09:46;;;;;;;7.73;3.47;;;;;;;;;;4914212;29;20681;-66
2024/01/10 01:12:13;;;;;;;13.63;6.70;;;;;;;;;;4914410;29;20226;-66
2024/01/10 01:14:40;;;;;;;18.43;6.77;;;;;;;;;;4913873;29;20207;-66
2024/01/10 01:17:07;;;;;;;19.10;7.37;;;;;;;;;;4913969;29;20596;-66
2024/01/10 01:19:35;;;;;;;14.53;5.53;;;;;;;;;;4914230;29;20243;-66
2024/01/10 01:22:02;;;;;;;15.40;7.20;;;;;;;;;;4913906;29;20300;-66
2024/01/10 01:24:29;;;;;;;19.13;6.80;;;;;;;;;;4929124;29;20216;-66
2024/01/10 01:26:57;;;;;;;19.47;6.40;;;;;;;;;;4913717;29;20208;-66
2024/01/10 01:29:30;;;;;;;20.97;6.07;;;;;;;;;;4914018;29;20221;-66
2024/01/10 01:31:57;;;;;;;13.73;3.90;;;;;;;;;;4913940;29;20231;-66
2024/01/10 01:34:24;;;;;;;12.37;5.53;;;;;;;;;;4914068;29;20226;-67
2024/01/10 01:36:52;;;;;;;14.30;6.10;;;;;;;;;;4913369;29;20586;-65
2024/01/10 01:39:19;;;;;;;14.90;6.27;;;;;;;;;;4913343;29;20329;-66
2024/01/10 01:41:46;;;;;;;4.20;3.57;;;;;;;;;;4913545;29;20592;-66
2024/01/10 01:44:14;;;;;;;14.33;6.53;;;;;;;;;;4913391;29;20238;-66
2024/01/10 01:46:41;;;;;;;14.73;4.73;;;;;;;;;;4913259;29;20222;-65
2024/01/10 01:49:09;;;;;;;11.97;5.70;;;;;;;;;;4913834;29;20333;-66
2024/01/10 01:51:37;;;;;;;15.60;6.33;;;;;;;;;;4913349;29;20225;-66
2024/01/10 01:54:05;;;;;;;14.67;5.87;;;;;;;;;;4913540;29;20241;-66
2024/01/10 01:56:32;;;;;;;16.37;6.20;;;;;;;;;;4913361;29;20222;-65
2024/01/10 01:58:59;;;;;;;18.77;7.90;;;;;;;;;;4912712;29;20231;-65
2024/01/10 02:01:28;;;;;;;4.47;2.20;;;;;;;;;;4923708;29;20614;-66
2024/01/10 02:06:59;;;;;;;3.67;1.70;;;;;;;;;;4919153;29;20888;-65
2024/01/10 02:09:26;;;;;;;17.40;6.30;;;;;;;;;;4913295;29;20225;-65
2024/01/10 02:11:53;;;;;;;31.93;7.97;;;;;;;;;;4913080;29;20209;-65
2024/01/10 02:14:20;;;;;;;21.33;8.47;;;;;;;;;;4913375;29;20641;-65
2024/01/10 02:16:48;;;;;;;8.47;3.63;;;;;;;;;;4916036;29;20219;-65
2024/01/10 02:19:19;;;;;;;19.90;7.30;;;;;;;;;;4912750;29;20777;-65
2024/01/10 02:21:46;;;;;;;19.47;7.20;;;;;;;;;;4912944;29;20248;-65
2024/01/10 02:24:13;;;;;;;21.20;8.63;;;;;;;;;;4912771;29;20211;-65
2024/01/10 02:26:42;;;;;;;22.63;7.83;;;;;;;;;;4912824;29;20277;-65
2024/01/10 02:29:09;;;;;;;17.00;7.10;;;;;;;;;;4913458;29;20212;-65
2024/01/10 02:31:36;;;;;;;13.43;5.80;;;;;;;;;;4912741;29;20219;-66
2024/01/10 02:34:03;;;;;;;5.47;2.57;;;;;;;;;;4912657;29;20631;-66
2024/01/10 02:36:30;;;;;;;16.10;6.70;;;;;;;;;;4911431;29;20224;-66
2024/01/10 02:38:57;;;;;;;21.67;7.73;;;;;;;;;;4912363;29;20291;-65
2024/01/10 02:41:24;;;;;;;10.17;4.57;;;;;;;;;;4912667;29;20242;-66
2024/01/10 02:43:52;;;;;;;11.83;5.70;;;;;;;;;;4912098;29;20253;-65
2024/01/10 02:46:22;;;;;;;22.97;7.70;;;;;;;;;;4912633;29;20218;-65
2024/01/10 02:48:49;;;;;;;10.17;3.43;;;;;;;;;;4911658;29;20373;-66
2024/01/10 02:51:16;;;;;;;16.00;5.93;;;;;;;;;;4912443;29;20246;-65
2024/01/10 02:53:43;;;;;;;15.60;5.50;;;;;;;;;;4921508;29;20221;-65
2024/01/10 02:56:10;;;;;;;12.30;6.17;;;;;;;;;;4931121;29;20221;-66
2024/01/10 02:58:37;;;;;;;14.20;6.40;;;;;;;;;;4922262;29;20638;-65
2024/01/10 03:01:06;;;;;;;17.93;7.10;;;;;;;;;;4911795;29;20212;-67
2024/01/10 03:03:33;;;;;;;19.63;6.57;;;;;;;;;;4912101;29;20259;-65
2024/01/10 03:06:00;;;;;;;19.87;7.23;;;;;;;;;;4912051;29;20222;-67
2024/01/10 03:08:27;;;;;;;9.17;5.07;;;;;;;;;;4911740;29;20226;-66
2024/01/10 03:10:54;;;;;;;21.00;6.73;;;;;;;;;;4911783;29;20220;-67
2024/01/10 03:13:21;;;;;;;20.57;6.80;;;;;;;;;;4911305;29;20214;-66
2024/01/10 03:15:48;;;;;;;22.37;7.53;;;;;;;;;;4911959;29;20225;-66
2024/01/10 03:18:17;;;;;;;17.03;7.67;;;;;;;;;;4911641;29;20228;-67
2024/01/10 03:20:44;;;;;;;26.73;8.47;;;;;;;;;;4911397;29;20222;-66
2024/01/10 03:23:11;;;;;;;20.37;8.20;;;;;;;;;;4911091;29;20210;-66
2024/01/10 03:25:38;;;;;;;18.43;8.23;;;;;;;;;;4911630;29;20313;-66
2024/01/10 03:28:05;;;;;;;17.27;7.60;;;;;;;;;;4910506;29;20667;-67
2024/01/10 03:30:32;;;;;;;21.40;7.27;;;;;;;;;;4911594;29;20211;-66
2024/01/10 03:32:59;;;;;;;19.70;7.40;;;;;;;;;;4911141;29;20694;-66
2024/01/10 03:35:27;;;;;;;19.30;7.77;;;;;;;;;;4917052;29;20217;-66
2024/01/10 03:37:54;;;;;;;20.97;7.63;;;;;;;;;;4930073;29;20228;-66
2024/01/10 03:40:22;;;;;;;17.53;6.53;;;;;;;;;;4930354;29;20246;-66
2024/01/10 03:42:49;;;;;;;21.03;7.40;;;;;;;;;;4927785;29;20256;-67
2024/01/10 03:45:17;;;;;;;18.20;7.40;;;;;;;;;;4909554;29;20601;-66
2024/01/10 03:47:44;;;;;;;19.40;7.40;;;;;;;;;;4910623;29;20213;-66
2024/01/10 03:50:11;;;;;;;19.20;8.03;;;;;;;;;;4910985;29;20607;-67
2024/01/10 03:52:39;;;;;;;22.33;8.40;;;;;;;;;;4911011;29;20563;-66
2024/01/10 03:55:07;;;;;;;21.43;7.90;;;;;;;;;;4911015;29;20209;-66
2024/01/10 03:57:34;;;;;;;20.90;8.17;;;;;;;;;;4916916;29;20221;-66
2024/01/10 04:00:01;;;;;;;19.47;7.93;;;;;;;;;;4912269;29;20787;-66
2024/01/10 04:02:28;;;;;;;19.00;8.03;;;;;;;;;;4911385;29;20246;-66
2024/01/10 04:04:55;;;;;;;13.70;6.07;;;;;;;;;;4911808;29;20759;-67
2024/01/10 04:07:22;;;;;;;20.97;9.37;;;;;;;;;;4911761;29;20214;-66
2024/01/10 04:09:51;;;;;;;15.97;7.07;;;;;;;;;;4911228;29;20299;-66
2024/01/10 04:12:18;;;;;;;16.77;6.37;;;;;;;;;;4911344;29;20216;-66
2024/01/10 04:14:45;;;;;;;18.77;8.23;;;;;;;;;;4911468;29;20222;-66
2024/01/10 04:17:12;;;;;;;19.57;7.30;;;;;;;;;;4911606;29;20221;-66
2024/01/10 04:19:39;;;;;;;11.23;4.77;;;;;;;;;;4911193;29;20236;-65
2024/01/10 04:22:06;;;;;;;20.37;6.47;;;;;;;;;;4910906;29;20222;-66
2024/01/10 04:24:33;;;;;;;18.47;7.27;;;;;;;;;;4914753;29;20590;-66
2024/01/10 04:27:01;;;;;;;8.67;4.60;;;;;;;;;;4914874;29;20233;-66
2024/01/10 04:29:28;;;;;;;22.20;8.33;;;;;;;;;;4915052;29;20210;-66
2024/01/10 04:31:55;;;;;;;11.97;6.20;;;;;;;;;;4915259;29;20218;-66
2024/01/10 04:34:24;;;;;;;21.50;8.00;;;;;;;;;;4914707;29;20244;-66
2024/01/10 04:36:51;;;;;;;19.50;6.33;;;;;;;;;;4914886;29;20217;-66
2024/01/10 04:39:19;;;;;;;19.33;8.23;;;;;;;;;;4914483;29;20610;-66
2024/01/10 04:41:46;;;;;;;17.33;7.47;;;;;;;;;;4914436;29;20275;-66
2024/01/10 04:44:14;;;;;;;15.10;6.27;;;;;;;;;;4914667;29;20249;-66
2024/01/10 04:46:41;;;;;;;18.87;6.30;;;;;;;;;;4914643;29;20217;-66
2024/01/10 04:49:08;;;;;;;17.13;7.17;;;;;;;;;;4914436;29;20234;-66
2024/01/10 04:51:37;;;;;;;14.03;5.00;;;;;;;;;;4914687;29;20223;-66
2024/01/10 04:54:04;;;;;;;7.37;4.13;;;;;;;;;;4913419;29;20215;-66
2024/01/10 04:56:31;;;;;;;19.63;7.70;;;;;;;;;;4914389;29;20228;-66
2024/01/10 04:58:58;;;;;;;14.80;6.90;;;;;;;;;;4914533;29;20230;-66
2024/01/10 05:01:26;;;;;;;24.53;8.30;;;;;;;;;;4916821;29;20650;-66
2024/01/10 05:03:53;;;;;;;20.30;7.83;;;;;;;;;;4914703;29;20222;-64
2024/01/10 05:06:20;;;;;;;25.13;8.57;;;;;;;;;;4917145;29;20222;-64
2024/01/10 05:08:47;;;;;;;19.93;8.80;;;;;;;;;;4914337;29;20225;-64
2024/01/10 05:11:15;;;;;;;23.77;8.60;;;;;;;;;;4914169;29;20779;-64
2024/01/10 05:13:42;;;;;;;21.47;7.53;;;;;;;;;;4913632;29;20219;-65
2024/01/10 05:16:14;;;;;;;18.30;6.50;;;;;;;;;;4915205;29;20209;-66
2024/01/10 05:18:42;;;;;;;18.47;6.90;;;;;;;;;;4914092;29;20708;-65
2024/01/10 05:21:09;;;;;;;25.27;8.60;;;;;;;;;;4913270;29;20213;-65
2024/01/10 05:23:38;;;;;;;22.23;7.67;;;;;;;;;;4923424;29;20236;-65
2024/01/10 05:26:05;;;;;;;15.77;7.03;;;;;;;;;;4914098;29;20327;-66
2024/01/10 05:28:32;;;;;;;20.90;7.70;;;;;;;;;;4913779;29;20593;-65
2024/01/10 05:31:00;;;;;;;19.33;7.60;;;;;;;;;;4913916;29;20208;-66
2024/01/10 05:33:27;;;;;;;17.63;7.43;;;;;;;;;;4913496;29;20210;-65
2024/01/10 05:35:55;;;;;;;21.77;8.03;;;;;;;;;;4913179;29;20250;-66
2024/01/10 05:38:22;;;;;;;19.83;8.83;;;;;;;;;;4914301;29;20628;-66
2024/01/10 05:40:49;;;;;;;18.63;7.50;;;;;;;;;;4923541;29;20242;-65
2024/01/10 05:43:16;;;;;;;20.50;7.57;;;;;;;;;;4929820;29;20244;-65
2024/01/10 05:45:43;;;;;;;23.67;8.67;;;;;;;;;;4928240;29;20318;-66
2024/01/10 05:48:10;;;;;;;23.70;9.10;;;;;;;;;;4932540;29;20216;-66
2024/01/10 05:50:39;;;;;;;18.03;7.53;;;;;;;;;;4931184;29;20212;-66
2024/01/10 05:53:08;;;;;;;16.00;6.50;;;;;;;;;;4913484;29;20281;-66
2024/01/10 05:55:36;;;;;;;22.60;8.30;;;;;;;;;;4913084;29;20231;-66
2024/01/10 05:58:03;;;;;;;20.47;9.13;;;;;;;;;;4929745;29;20266;-65
2024/01/10 06:00:31;;;;;;;23.20;9.47;;;;;;;;;;4931129;29;20726;-64
2024/01/10 06:02:58;;;;;;;11.77;5.67;;;;;;;;;;4913648;29;20210;-65
2024/01/10 06:05:25;;;;;;;20.97;6.37;;;;;;;;;;4912016;29;20562;-67
2024/01/10 06:07:52;;;;;;;24.40;9.17;;;;;;;;;;4912775;29;20213;-65
2024/01/10 06:10:20;;;;;;;15.47;6.50;;;;;;;;;;4913120;29;20229;-67
2024/01/10 06:12:48;;;;;;;18.17;7.43;;;;;;;;;;4912843;29;20309;-65
2024/01/10 06:15:15;;;;;;;24.70;8.90;;;;;;;;;;4913550;29;20224;-66
2024/01/10 06:17:43;;;;;;;17.07;8.30;;;;;;;;;;4913171;29;20243;-65
2024/01/10 06:20:10;;;;;;;18.00;7.47;;;;;;;;;;4906827;29;20705;-65
2024/01/10 06:22:37;;;;;;;10.17;5.23;;;;;;;;;;4921469;29;20217;-65
2024/01/10 06:25:05;;;;;;;23.63;8.30;;;;;;;;;;4917772;29;20699;-65
2024/01/10 06:27:33;;;;;;;5.97;2.90;;;;;;;;;;4926458;29;20296;-65
2024/01/10 06:30:00;;;;;;;4.50;3.43;;;;;;;;;;4924985;29;20216;-65
2024/01/10 06:32:27;;;;;;;7.70;4.93;;;;;;;;;;4915071;29;20207;-65
2024/01/10 06:34:54;;;;;;;27.50;9.77;;;;;;;;;;4911560;29;20223;-65
2024/01/10 06:37:21;;;;;;;16.97;8.43;;;;;;;;;;4909762;29;20216;-66
2024/01/10 06:39:48;;;;;;;14.57;6.03;;;;;;;;;;4912125;29;20220;-65
2024/01/10 06:42:16;;;;;;;24.60;9.10;;;;;;;;;;4912643;29;20241;-66
2024/01/10 06:44:44;;;;;;;12.07;5.90;;;;;;;;;;4912512;29;20244;-65
2024/01/10 06:47:11;;;;;;;21.97;8.70;;;;;;;;;;4909879;29;20643;-65
2024/01/10 06:49:38;;;;;;;22.20;8.60;;;;;;;;;;4912384;29;20675;-65
2024/01/10 06:52:06;;;;;;;20.33;8.20;;;;;;;;;;4912101;29;20224;-65
2024/01/10 06:54:34;;;;;;;22.40;9.47;;;;;;;;;;4911930;29;20205;-65
2024/01/10 06:57:01;;;;;;;23.00;8.67;;;;;;;;;;4912188;29;20224;-65
2024/01/10 06:59:28;;;;;;;18.53;8.03;;;;;;;;;;4912104;29;20213;-66
2024/01/10 07:01:56;;;;;;;18.63;7.67;;;;;;;;;;4911954;29;20217;-65
2024/01/10 07:04:24;;;;;;;21.40;9.40;;;;;;;;;;4911702;29;20203;-65
2024/01/10 07:06:51;;;;;;;24.83;9.57;;;;;;;;;;4912079;29;20710;-65
2024/01/10 07:09:19;;;;;;;16.40;7.43;;;;;;;;;;4911974;29;20222;-66
2024/01/10 07:11:47;;;;;;;19.13;8.20;;;;;;;;;;4911321;29;20246;-65
2024/01/10 07:14:14;;;;;;;24.27;10.00;;;;;;;;;;4912283;29;20212;-65
2024/01/10 07:16:42;;;;;;;27.53;9.77;;;;;;;;;;4911789;29;20268;-65
2024/01/10 07:19:13;;;;;;;23.90;9.50;;;;;;;;;;4911848;29;20244;-65
2024/01/10 07:21:40;;;;;;;19.87;7.57;;;;;;;;;;4911611;29;20228;-65
2024/01/10 07:24:08;;;;;;;22.83;8.17;;;;;;;;;;4912120;29;20220;-66
2024/01/10 07:26:35;;;;;;;27.30;9.90;;;;;;;;;;4912190;29;20220;-66
2024/01/10 07:29:02;;;;;;;13.73;6.67;;;;;;;;;;4911430;29;20574;-65
2024/01/10 07:31:29;;;;;;;19.00;6.97;;;;;;;;;;4911625;29;20907;-65
2024/01/10 07:33:57;;;;;;;4.80;2.67;;;;;;;;;;4911481;29;20236;-67
2024/01/10 07:36:26;;;;;;;13.60;5.97;;;;;;;;;;4911934;29;20251;-65
2024/01/10 07:38:53;;;;;;;18.50;8.17;;;;;;;;;;4911751;29;20220;-65
2024/01/10 07:41:20;;;;;;;20.77;6.93;;;;;;;;;;4911711;29;20271;-65
2024/01/10 07:43:47;;;;;;;18.97;8.53;;;;;;;;;;4911724;29;20267;-65
2024/01/10 07:46:14;;;;;;;19.10;7.20;;;;;;;;;;4911828;29;20210;-65
2024/01/10 07:48:41;;;;;;;23.30;9.03;;;;;;;;;;4911702;29;20663;-65
2024/01/10 07:51:09;;;;;;;28.30;8.80;;;;;;;;;;4911929;29;20739;-67
2024/01/10 07:53:38;;;;;;;20.57;7.37;;;;;;;;;;4911697;29;20277;-66
2024/01/10 07:56:05;;;;;;;17.67;7.73;;;;;;;;;;4911949;29;20213;-65
2024/01/10 07:58:32;;;;;;;14.97;5.20;;;;;;;;;;4914163;29;20810;-65
2024/01/10 08:00:59;;;;;;;29.87;12.43;;;;;;;;;;4915443;29;20232;-66
2024/01/10 08:03:26;;;;;;;23.73;9.93;;;;;;;;;;4915673;29;20216;-66
2024/01/10 08:05:53;;;;;;;18.33;9.60;;;;;;;;;;4914599;29;20686;-66
2024/01/10 08:08:20;;;;;;;11.47;5.87;;;;;;;;;;4915284;29;20224;-66
2024/01/10 08:10:48;;;;;;;26.53;9.40;;;;;;;;;;4914823;29;20210;-66
2024/01/10 08:13:16;;;;;;;15.60;5.03;;;;;;;;;;4915288;29;20221;-66
2024/01/10 08:15:43;;;;;;;22.53;8.37;;;;;;;;;;4915019;29;20221;-66
2024/01/10 08:18:10;;;;;;;21.63;9.27;;;;;;;;;;4914967;29;20227;-66
2024/01/10 08:20:37;;;;;;;29.03;10.17;;;;;;;;;;4914891;29;20238;-66
2024/01/10 08:23:04;;;;;;;9.17;4.90;;;;;;;;;;4915243;29;20243;-67
2024/01/10 08:25:31;;;;;;;18.50;9.00;;;;;;;;;;4914704;29;20699;-66
2024/01/10 08:28:00;;;;;;;19.17;7.53;;;;;;;;;;4915020;29;20347;-65
2024/01/10 08:30:27;;;;;;;16.60;7.23;;;;;;;;;;4914666;29;20585;-65
2024/01/10 08:32:54;;;;;;;21.63;8.97;;;;;;;;;;4914479;29;20209;-65
2024/01/10 08:35:21;;;;;;;24.33;8.33;;;;;;;;;;4915127;29;20206;-65
2024/01/10 08:37:49;;;;;;;24.40;8.60;;;;;;;;;;4915048;29;20233;-65
2024/01/10 08:40:17;;;;;;;26.07;9.40;;;;;;;;;;4914454;29;20293;-65
2024/01/10 08:42:44;;;;;;;16.67;7.33;;;;;;;;;;4914407;29;20234;-64
2024/01/10 08:45:14;;;;;;;20.33;9.57;;;;;;;;;;4914834;29;20222;-65
2024/01/10 08:47:41;;;;;;;25.97;7.90;;;;;;;;;;4914407;29;20305;-65
2024/01/10 08:50:09;;;;;;;12.63;5.77;;;;;;;;;;4914837;29;20211;-64
2024/01/10 08:52:37;;;;;;;20.27;8.13;;;;;;;;;;4928377;29;20246;-64
2024/01/10 08:55:04;;;;;;;16.50;7.23;;;;;;;;;;4913677;29;20573;-64
2024/01/10 08:57:31;;;;;;;13.50;6.00;;;;;;;;;;4914392;29;20246;-65
2024/01/10 08:59:58;;;;;;;13.03;6.23;;;;;;;;;;4914293;29;20227;-65
2024/01/10 09:02:27;;;;;;;12.87;5.17;;;;;;;;;;4914124;29;20231;-64
2024/01/10 09:04:54;;;;;;;12.43;4.00;;;;;;;;;;4913701;29;20208;-64
2024/01/10 09:07:21;;;;;;;22.57;9.50;;;;;;;;;;4911927;29;20248;-64
2024/01/10 09:09:48;;;;;;;14.13;6.70;;;;;;;;;;4913422;29;20212;-64
2024/01/10 09:12:15;;;;;;;27.07;8.30;;;;;;;;;;4913698;29;20219;-65
2024/01/10 09:14:42;;;;;;;8.77;4.07;;;;;;;;;;4914194;29;20235;-64
2024/01/10 09:17:09;;;;;;;12.10;6.93;;;;;;;;;;4914092;29;20227;-64
2024/01/10 09:19:38;;;;;;;27.75;13.18;;;;;;;;;;4913655;29;20458;-64
2024/01/10 09:22:05;;;;;;;12.10;6.20;;;;;;;;;;4914209;29;20246;-64
2024/01/10 09:24:32;;;;;;;22.73;9.10;;;;;;;;;;4920132;29;20212;-62
2024/01/10 09:26:59;;;;;;;20.30;8.93;;;;;;;;;;4912829;29;20220;-64
2024/01/10 09:29:27;;;;;;;11.27;5.37;;;;;;;;;;4915711;29;20590;-65
2024/01/10 09:31:54;;;;;;;23.00;6.47;;;;;;;;;;4932346;29;20247;-65
2024/01/10 09:34:21;;;;;;;28.13;9.70;;;;;;;;;;4922198;29;20280;-63
2024/01/10 09:36:50;;;;;;;19.50;8.17;;;;;;;;;;4913523;29;20236;-65
2024/01/10 09:39:17;;;;;;;17.90;7.30;;;;;;;;;;4912353;29;20213;-65
2024/01/10 09:41:48;;;;;;;15.73;6.63;;;;;;;;;;4912825;29;20237;-65
2024/01/10 09:44:15;;;;;;;21.00;7.30;;;;;;;;;;4912867;29;20955;-65
2024/01/10 09:46:44;;;;;;;16.53;7.00;;;;;;;;;;4910655;29;20228;-65
2024/01/10 09:49:11;;;;;;;6.57;4.93;;;;;;;;;;4912834;29;20212;-65
2024/01/10 09:51:39;;;;;;;24.60;8.23;;;;;;;;;;4913962;29;20212;-65
2024/01/10 09:54:07;;;;;;;22.43;9.13;;;;;;;;;;4921808;29;20212;-65
2024/01/10 09:56:34;;;;;;;8.20;2.47;;;;;;;;;;4910352;29;20682;-65
2024/01/10 09:59:04;;;;;;;24.00;7.60;;;;;;;;;;4910993;29;20235;-64
2024/01/10 10:01:32;;;;;;;5.27;3.47;;;;;;;;;;4910527;29;20232;-64
2024/01/10 10:04:01;;;;;;;21.73;8.80;;;;;;;;;;4912676;29;20295;-64
2024/01/10 10:06:29;;;;;;;21.53;7.63;;;;;;;;;;4912663;29;20216;-64
2024/01/10 10:08:56;;;;;;;11.00;4.80;;;;;;;;;;4911364;29;20212;-65
2024/01/10 10:11:24;;;;;;;17.23;6.00;;;;;;;;;;4912660;29;20231;-65
2024/01/10 10:13:51;;;;;;;18.20;8.03;;;;;;;;;;4912763;29;20216;-64
2024/01/10 10:16:24;;;;;;;13.80;6.97;;;;;;;;;;4913037;29;20216;-64
2024/01/10 10:18:53;;;;;;;17.77;7.20;;;;;;;;;;4912380;29;20719;-65
2024/01/10 10:21:20;;;;;;;18.50;8.50;;;;;;;;;;4909736;29;20327;-63
2024/01/10 10:23:58;;;;;;;16.77;5.17;;;;;;;;;;4909903;29;20213;-65
2024/01/10 10:26:29;;;;;;;19.47;8.70;;;;;;;;;;4907237;29;20226;-65
2024/01/10 10:28:57;;;;;;;7.33;4.20;;;;;;;;;;4909407;29;20231;-65
2024/01/10 10:31:24;;;;;;;7.57;4.67;;;;;;;;;;4909093;29;20224;-65
2024/01/10 10:33:52;;;;;;;7.40;3.83;;;;;;;;;;4909830;29;20223;-65
2024/01/10 10:36:20;;;;;;;24.93;8.20;;;;;;;;;;4909153;29;20223;-65
2024/01/10 10:38:49;;;;;;;17.27;7.43;;;;;;;;;;4909758;29;20295;-65
2024/01/10 10:41:16;;;;;;;12.90;6.40;;;;;;;;;;4909184;29;20311;-65
2024/01/10 10:43:44;;;;;;;9.80;5.67;;;;;;;;;;4910016;29;20247;-65
2024/01/10 10:46:13;;;;;;;15.87;7.47;;;;;;;;;;4908524;29;20210;-65
2024/01/10 10:48:40;;;;;;;5.23;2.67;;;;;;;;;;4909271;29;20642;-65
2024/01/10 10:51:08;;;;;;;17.90;7.93;;;;;;;;;;4908846;29;20209;-65
2024/01/10 10:53:36;;;;;;;13.60;6.30;;;;;;;;;;4909576;29;20241;-67
2024/01/10 10:56:04;;;;;;;18.43;8.07;;;;;;;;;;4909001;29;20227;-64
2024/01/10 10:58:33;;;;;;;6.77;4.03;;;;;;;;;;4909535;29;20213;-65
2024/01/10 11:01:02;;;;;;;19.43;8.07;;;;;;;;;;4925145;29;20248;-66
2024/01/10 11:03:31;;;;;;;20.43;8.40;;;;;;;;;;4930911;29;20217;-65
2024/01/10 11:06:01;;;;;;;17.73;6.93;;;;;;;;;;4930729;29;20215;-65
2024/01/10 11:08:29;;;;;;;17.17;7.50;;;;;;;;;;4930107;29;20254;-65
2024/01/10 11:10:56;;;;;;;21.53;6.90;;;;;;;;;;4926418;29;20213;-65
2024/01/10 11:13:34;;;;;;;15.23;7.97;;;;;;;;;;4917548;29;20228;-66
2024/01/10 11:16:11;;;;;;;18.77;6.53;;;;;;;;;;4911583;29;20221;-65
2024/01/10 11:18:50;;;;;;;8.70;4.17;;;;;;;;;;4911385;29;20208;-64
2024/01/10 11:21:24;;;;;;;18.77;8.77;;;;;;;;;;4911670;29;20238;-65
2024/01/10 11:29:03;;;;;;;13.63;6.47;;;;;;;;;;5071368;23;20316;-66
2024/01/10 11:31:32;;;;;;;10.73;4.97;;;;;;;;;;4943835;28;20213;-65
2024/01/10 11:33:59;;;;;;;21.20;8.47;;;;;;;;;;4930531;29;20210;-65
2024/01/10 11:36:27;;;;;;;21.27;8.67;;;;;;;;;;4929002;29;20221;-65
2024/01/10 11:39:02;;;;;;;18.57;8.50;;;;;;;;;;4932302;28;20222;-65
2024/01/10 11:41:29;;;;;;;18.10;8.67;;;;;;;;;;4947413;29;20649;-65
2024/01/10 11:44:17;;;;;;;10.93;5.57;;;;;;;;;;4945791;29;20221;-65
2024/01/10 11:46:47;;;;;;;19.63;8.83;;;;;;;;;;4949122;29;20436;-65
2024/01/10 11:49:16;;;;;;;21.80;8.13;;;;;;;;;;4947210;29;20301;-65
2024/01/10 11:51:43;;;;;;;11.53;4.90;;;;;;;;;;4945555;29;20247;-65
2024/01/10 11:54:13;;;;;;;13.63;6.17;;;;;;;;;;4947664;29;20214;-65
2024/01/10 11:56:41;;;;;;;19.80;8.07;;;;;;;;;;4949739;29;20242;-65
2024/01/10 11:59:10;;;;;;;13.73;6.57;;;;;;;;;;4947630;29;20276;-65
2024/01/10 12:01:37;;;;;;;16.37;7.70;;;;;;;;;;4947680;28;20244;-65
2024/01/10 12:04:06;;;;;;;18.33;8.33;;;;;;;;;;4944846;28;20213;-64
2024/01/10 12:06:33;;;;;;;15.67;7.23;;;;;;;;;;4942708;29;20676;-65
2024/01/10 12:09:04;;;;;;;12.63;5.43;;;;;;;;;;4947533;28;20217;-64
2024/01/10 12:11:31;;;;;;;14.63;6.50;;;;;;;;;;4947915;28;20211;-65
2024/01/10 12:13:59;;;;;;;17.67;7.43;;;;;;;;;;4949768;28;20222;-64
2024/01/10 12:16:26;;;;;;;15.43;7.43;;;;;;;;;;4949844;29;20253;-67
2024/01/10 12:18:53;;;;;;;18.93;7.77;;;;;;;;;;4949358;28;20412;-67
2024/01/10 12:21:21;;;;;;;14.33;5.23;;;;;;;;;;4946410;28;20704;-70
2024/01/10 12:23:49;;;;;;;17.87;7.93;;;;;;;;;;4949706;28;20215;-69
2024/01/10 12:26:16;;;;;;;16.97;7.77;;;;;;;;;;4949647;28;20758;-69
2024/01/10 12:28:54;;;;;;;21.67;8.63;;;;;;;;;;4948395;28;20254;-70
2024/01/10 12:31:22;;;;;;;15.97;6.50;;;;;;;;;;4949403;28;20211;-69
2024/01/10 12:33:49;;;;;;;17.80;8.20;;;;;;;;;;4949814;29;20250;-69
2024/01/10 12:36:18;;;;;;;15.57;6.77;;;;;;;;;;4949728;28;20215;-69
2024/01/10 12:38:46;;;;;;;19.00;8.23;;;;;;;;;;4949375;28;20219;-69
2024/01/10 12:41:15;;;;;;;15.27;6.97;;;;;;;;;;4948535;28;20211;-69
2024/01/10 12:43:42;;;;;;;11.33;6.17;;;;;;;;;;4949450;28;20218;-70
2024/01/10 12:46:11;;;;;;;16.20;6.27;;;;;;;;;;4952482;28;20693;-70
2024/01/10 12:48:41;;;;;;;19.00;7.97;;;;;;;;;;4952790;28;20215;-69
2024/01/10 12:51:08;;;;;;;14.97;6.80;;;;;;;;;;4952840;28;20217;-70
2024/01/10 12:53:36;;;;;;;19.03;7.80;;;;;;;;;;4952837;28;20222;-70
2024/01/10 12:56:04;;;;;;;9.53;4.83;;;;;;;;;;4952994;28;20211;-70
2024/01/10 12:58:31;;;;;;;10.70;5.33;;;;;;;;;;4952535;28;20221;-70
2024/01/10 13:00:58;;;;;;;11.30;5.00;;;;;;;;;;4956953;28;20221;-70
2024/01/10 13:03:25;;;;;;;14.00;6.73;;;;;;;;;;4953138;28;20261;-70
2024/01/10 13:05:52;;;;;;;6.87;3.70;;;;;;;;;;4952808;28;20211;-69
2024/01/10 13:08:20;;;;;;;16.43;7.33;;;;;;;;;;4952505;28;20278;-69
2024/01/10 13:10:48;;;;;;;16.27;6.77;;;;;;;;;;4952524;28;20223;-70
2024/01/10 13:13:17;;;;;;;14.70;6.33;;;;;;;;;;4952353;28;20222;-69
2024/01/10 13:15:45;;;;;;;12.90;6.00;;;;;;;;;;4951676;28;20225;-69
2024/01/10 13:18:12;;;;;;;15.00;6.40;;;;;;;;;;4952340;28;20211;-70
2024/01/10 13:20:39;;;;;;;10.67;4.57;;;;;;;;;;4952013;28;20272;-69
2024/01/10 13:23:07;;;;;;;14.83;6.33;;;;;;;;;;4952137;28;20246;-69
2024/01/10 13:25:34;;;;;;;12.93;6.30;;;;;;;;;;4952342;28;20628;-70
2024/01/10 13:28:01;;;;;;;12.17;5.57;;;;;;;;;;4952440;28;20249;-70
2024/01/10 13:30:30;;;;;;;10.77;5.77;;;;;;;;;;4952283;28;20214;-70
2024/01/10 13:32:57;;;;;;;14.40;6.13;;;;;;;;;;4951178;28;20661;-70
2024/01/10 13:35:24;;;;;;;15.83;6.30;;;;;;;;;;4951886;28;20228;-70
2024/01/10 13:37:51;;;;;;;16.93;7.10;;;;;;;;;;4952147;28;20216;-69
2024/01/10 13:40:23;;;;;;;14.87;5.70;;;;;;;;;;4950767;28;20254;-71
2024/01/10 13:42:51;;;;;;;13.10;6.77;;;;;;;;;;4951810;28;20230;-71
2024/01/10 13:45:18;;;;;;;8.97;3.93;;;;;;;;;;4951951;28;20234;-71
2024/01/10 13:47:46;;;;;;;12.93;7.83;;;;;;;;;;4952034;28;20313;-70
2024/01/10 13:50:13;;;;;;;15.57;6.50;;;;;;;;;;4951364;28;20222;-70
2024/01/10 13:52:40;;;;;;;16.83;6.90;;;;;;;;;;4952011;28;20214;-71
2024/01/10 13:55:07;;;;;;;14.43;6.83;;;;;;;;;;4951362;28;20210;-70
2024/01/10 13:57:35;;;;;;;13.93;7.23;;;;;;;;;;4951614;28;20265;-71
2024/01/10 14:00:03;;;;;;;11.33;5.53;;;;;;;;;;4951360;29;20213;-70
2024/01/10 14:02:30;;;;;;;11.60;6.70;;;;;;;;;;4951380;28;20299;-71
2024/01/10 14:04:58;;;;;;;9.77;5.40;;;;;;;;;;4951631;29;20580;-71
2024/01/10 14:07:25;;;;;;;13.80;6.93;;;;;;;;;;4950682;28;20771;-71
2024/01/10 14:09:54;;;;;;;14.87;6.33;;;;;;;;;;4951192;28;20270;-71
2024/01/10 14:12:22;;;;;;;17.70;8.23;;;;;;;;;;4951342;28;20688;-71
2024/01/10 14:14:49;;;;;;;14.13;7.37;;;;;;;;;;4951144;28;20210;-71
2024/01/10 14:17:16;;;;;;;19.33;8.87;;;;;;;;;;4951240;28;20226;-71
2024/01/10 14:19:44;;;;;;;18.67;8.57;;;;;;;;;;4950963;28;20582;-71
2024/01/10 14:22:12;;;;;;;14.47;6.33;;;;;;;;;;4951164;28;20355;-69
2024/01/10 14:24:39;;;;;;;8.33;3.03;;;;;;;;;;4951319;28;20225;-72
2024/01/10 14:27:07;;;;;;;15.30;6.83;;;;;;;;;;4950945;28;20743;-69
2024/01/10 14:29:34;;;;;;;16.70;8.70;;;;;;;;;;4950592;28;20271;-70
2024/01/10 14:32:01;;;;;;;14.47;6.57;;;;;;;;;;4951364;28;20250;-71
2024/01/10 14:34:28;;;;;;;21.60;9.63;;;;;;;;;;4950828;28;20221;-71
2024/01/10 14:36:56;;;;;;;19.07;7.97;;;;;;;;;;4950770;28;20689;-71
2024/01/10 14:39:24;;;;;;;26.27;9.27;;;;;;;;;;4949840;28;20214;-72
2024/01/10 14:41:51;;;;;;;16.10;7.63;;;;;;;;;;4950922;28;20592;-69